Raddle, Illinois
Current Conditions -  °F | °C
As of 7:52 PM on Sunday 23 Nov 2014 (Local Time) from KMDH Reporting Station
Overcast Overcast  
Wind Chill: 54°   Ceiling: 900
Heat Index: 54°   Visibility: 10mi
Dew Point: 53°   Wind: 10mph
Humidity: 97%   Direction: 220°SW
Pressure: 29.29"   Gusts: NA
Location:  37.7458°N, 89.5469°W
Report Text: KMDH 240152Z AUTO 22009KT 10SM OVC009 12/12 A2929 RMK AO2 RAE11 CIG 007V012 SLP917 P0001 T01220117
Loading
Personal Weather Stations






























Interactive Weather Map New forecast layout! Learn more

10-Day Weather Forecast

Advertisements
Track Severe Weather on mobile